logo
App data

I Expect You To Die

Play as a secret agent armed with telekinetic abilities on a mission to stop Zoraxis, a nefarious global weapons and pharmaceutical corporation.
Store | Hub | SteamDB | Site
Developer: Schell Games Publisher: Schell Games
Genre: Indie
Languages: English
Tags: Indie (25), VR (22), Puzzle (13)
Category: Single-player, Steam Achievements, Steam Trading Cards
Release date: Apr 25, 2017
Price: $24.99
Score rank: 83% Userscore: 92% Old userscore: 92% Metascore: 77%
Owners: 50,000 .. 100,000
Followers: 4,745
Peak concurrent players yesterday: 18
Peak on Twitch yesterday: 1 viewers, 1 channels
Playtime in the last 2 weeks: 00:40 (average) 00:40 (median)
Playtime total: 02:55 (average) 02:17 (median)

Steam Spy is still in beta, so expect major bugs.

Owners data:

Access restricted.

This feature is only available to users with special access rights. Sorry.

If you want to proceed, you need to register or log in first and then back Steam Spy on Patreon. Look for Indie or Pro pledge.

Don't forget to use the same email as on Steam Spy!

Audience in 2 weeks:

Access restricted.

This feature is only available to users with special access rights. Sorry.

If you want to proceed, you need to register or log in first and then back Steam Spy on Patreon. Look for Indie or Pro pledge.

Don't forget to use the same email as on Steam Spy!

Peak daily concurrent players:

CCU data courtesy of SteamDB. Used with permission.

Hourly concurrent players:

Daily Twitch stats:

Hourly Twitch stats:

YouTube:

The views data is based on top 50 videos uploaded last week. Actual number of views might be more than the number shown.

The displayed number of videos uploaded yesterday is limited to 50, so if there were more videos uploaded, the number will still show 50.

If the game has commonly used word as its name (like "FEAR" or "Volume") its number of Youtube views might be wrong.

Games similar to this one:

# Game Release date
Price
Score rank
(Userscore / Metascore)
Owners
Players
Playtime (Median)
1 Quell May 14, 2015 $3.9999% (98%)0 .. 20,0000%00:00 (00:00)
2 Hidden in Plain Sight Jul 16, 2014 $5.9999% (98%)20,000 .. 50,0000%00:00 (00:00)
3 Luxor Evolved Mar 1, 2012 $9.9997% (97%)50,000 .. 100,0000%00:00 (00:00)
4 Stephen's Sausage Roll Apr 18, 2016 $29.9997% (97%/90%)20,000 .. 50,0000%00:00 (00:00)
5 Narcissu 10th Anniversary Anthology Project Jan 27, 2016 $2.9997% (97%)50,000 .. 100,0001.14%05:34 (02:05)
6 Letter Quest: Grimm's Journey Nov 20, 2014 N/A95% (96%/73%)50,000 .. 100,0000.61%03:51 (01:17)
7 HyperRogue Jan 16, 2015 $4.9995% (96%)20,000 .. 50,0000%00:00 (00:00)
8 REVOLVER360 RE:ACTOR Oct 24, 2014 $9.9993% (95%)50,000 .. 100,0000%00:00 (00:00)
9 Divide By Sheep Jul 2, 2015 $4.9993% (95%/83%)100,000 .. 200,0000.38%00:41 (00:13)
10 Unium Mar 27, 2015 $1.9993% (95%)20,000 .. 50,0000%00:00 (00:00)
11 A Good Snowman Is Hard To Build Feb 25, 2015 $9.9993% (95%)20,000 .. 50,0000%00:00 (00:00)
12 Avalanche 2: Super Avalanche Jun 11, 2015 $4.99N/A (N/A)50,000 .. 100,0000%00:00 (00:00)
13 Prelogate Dec 10, 2014 $3.9987% (93%)0 .. 20,0000%00:00 (00:00)
14 Abduction Bit Nov 15, 2016 $0.9987% (93%)0 .. 20,0000%00:00 (00:00)
15 Cloudberry Kingdom Aug 2, 2013 $9.9983% (92%/67%)20,000 .. 50,0000%00:00 (00:00)
16 Strata May 29, 2014 $3.9983% (92%)20,000 .. 50,0000%00:00 (00:00)
17 Unhack Jan 9, 2015 $3.9983% (92%)20,000 .. 50,0000%00:00 (00:00)
18 About Love, Hate and the other ones Dec 12, 2014 $6.9979% (91%)50,000 .. 100,0000.56%07:05 (02:21)
19 Grapple Mar 9, 2015 $3.4979% (91%)20,000 .. 50,0000%00:00 (00:00)
20 Aero's Quest Jun 8, 2015 $4.99N/A (N/A)0 .. 20,0000%00:00 (00:00)
21 Tribloos 2 Jan 30, 2014 $4.9979% (91%)100,000 .. 200,0000.63%00:34 (00:29)
22 LogiGun Jul 22, 2014 $4.9976% (90%)0 .. 20,0000%00:00 (00:00)
23 Straimium Immortaly Oct 10, 2016 $8.9976% (90%)0 .. 20,0000%00:00 (00:00)
24 On Rusty Trails Jun 13, 2016 $12.9976% (90%/77%)50,000 .. 100,0000%00:00 (00:00)
25 Cubot Jan 8, 2015 $1.9976% (90%)20,000 .. 50,0000%00:00 (00:00)
26 PANORAMICAL Sep 17, 2015 $9.9976% (90%)0 .. 20,0000%00:00 (00:00)
27 room13 Jan 13, 2017 $7.99N/A (N/A)20,000 .. 50,0000%00:00 (00:00)
28 Sokobond Jul 21, 2014 $9.9976% (90%/82%)20,000 .. 50,0000%00:00 (00:00)
29 Ichi Jun 12, 2014 $4.9976% (90%)50,000 .. 100,0000.45%00:09 (00:03)
30 Venusian Vengeance Mar 27, 2015 $3.99N/A (N/A)0 .. 20,0000%00:00 (00:00)
31 This Starry Midnight We Make Jun 1, 2015 $9.99N/A (N/A)0 .. 20,0000%00:00 (00:00)
32 The Reject Demon: Toko Chapter 0 — Prelude May 8, 2015 $4.9973% (89%)0 .. 20,0001.52%04:55 (01:38)
33 12 Labours of Hercules IV: Mother Nature (Platinum Edition) Dec 25, 2015 $2.9973% (89%)20,000 .. 50,0004.81%03:41 (03:52)
34 Bob Was Hungry Aug 19, 2015 $9.9970% (88%)20,000 .. 50,0000%00:00 (00:00)
35 Rooms: The Unsolvable Puzzle May 1, 2015 $14.9970% (88%/66%)0 .. 20,0000%00:00 (00:00)
36 Glowfish Sep 30, 2011 $9.9970% (88%)20,000 .. 50,0000%00:00 (00:00)
37 Zenzizenzic Jul 23, 2015 $9.9970% (88%/85%)0 .. 20,0000%00:00 (00:00)
38 Aqua Kitty - Milk Mine Defender Feb 3, 2014 $6.9970% (88%)20,000 .. 50,0000%00:00 (00:00)
39 Golf for Workgroups Apr 6, 2017 $4.99N/A (N/A)0 .. 20,0000%00:00 (00:00)
40 Blitz Breaker Feb 2, 2016 $0.9967% (87%)0 .. 20,0000%00:00 (00:00)
41 Square Heroes Apr 9, 2015 $4.9967% (87%)20,000 .. 50,0000.89%00:07 (00:02)
42 Vampires: Guide Them to Safety! Oct 22, 2014 $4.99N/A (N/A)0 .. 20,0000%00:00 (00:00)
43 Diadra Empty Jul 21, 2015 $5.99N/A (N/A)20,000 .. 50,0000%00:00 (00:00)
44 In Between Aug 21, 2015 $11.9965% (86%/68%)50,000 .. 100,0000%00:00 (00:00)
45 Spy Chameleon - RGB Agent Jun 11, 2014 $4.9965% (86%)50,000 .. 100,0000%00:00 (00:00)
46 Sophie's Curse Mar 16, 2016 $4.9965% (86%)50,000 .. 100,0000%00:00 (00:00)
47 Cursed Sight Aug 3, 2015 $5.9965% (86%)0 .. 20,0000%00:00 (00:00)
48 A grande bagunça espacial - The big space mess Apr 5, 2016 $0.9965% (86%)200,000 .. 500,0000.14%00:30 (00:10)
49 Sentinel 4: Dark Star Aug 13, 2015 $6.99N/A (N/A)0 .. 20,0000%00:00 (00:00)
50 ASCII Attack Mar 16, 2016 $2.99N/A (N/A)0 .. 20,0000%00:00 (00:00)
51 Richie's Plank Experience Dec 18, 2017 $14.9959% (84%)20,000 .. 50,0007.41%00:27 (00:17)
52 in Space Apr 27, 2015 $0.9959% (84%)0 .. 20,0000%00:00 (00:00)
53 AaAaAA!!! - A Reckless Disregard for Gravity Sep 3, 2009 $9.9957% (83%/81%)100,000 .. 200,0000%00:00 (00:00)
54 Cyto Jul 10, 2014 $3.99N/A (N/A)20,000 .. 50,0000%00:00 (00:00)
55 Governor of Poker 2 - Premium Edition Oct 11, 2010 $14.9957% (83%)20,000 .. 50,0000%00:00 (00:00)
56 Arclight Cascade Aug 25, 2015 FreeN/A (N/A)0 .. 20,0000%00:00 (00:00)
57 Cold Waters Jun 5, 2017 $39.9957% (83%)50,000 .. 100,0009.09%00:32 (00:21)
58 Steam and Metal Feb 9, 2015 $4.99N/A (N/A)0 .. 20,0000%00:00 (00:00)
59 Super Star Path Jun 22, 2015 $4.9957% (83%)20,000 .. 50,0000%00:00 (00:00)
60 King Kaiju Jan 31, 2017 $4.9954% (82%)0 .. 20,0000%00:00 (00:00)
61 ISLANDS: Non-Places Nov 17, 2016 $4.9954% (82%)20,000 .. 50,0000%00:00 (00:00)
62 Cute Things Dying Violently Sep 2, 2015 $2.99N/A (N/A)0 .. 20,0000%00:00 (00:00)
63 Blocks That Matter Aug 19, 2011 $4.9954% (82%/72%)200,000 .. 500,0000%00:00 (00:00)
64 Shutshimi Aug 25, 2015 $4.99N/A (N/A)50,000 .. 100,0000%00:00 (00:00)
65 Stay Alight Mar 2, 2015 $3.9952% (81%)20,000 .. 50,0000%00:00 (00:00)
66 The Floor is Jelly May 30, 2014 $9.9952% (81%/83%)20,000 .. 50,0002.56%02:24 (00:48)
67 Death Goat Jun 7, 2016 $2.9952% (81%)20,000 .. 50,0000%00:00 (00:00)
68 Swipecart May 8, 2014 $2.99N/A (N/A)100,000 .. 200,0000.32%00:01 (00:00)
69 Korwin The Game Oct 1, 2015 $1.9952% (81%)0 .. 20,0000%00:00 (00:00)
70 Ancients of Ooga May 20, 2011 $9.99N/A (N/A)20,000 .. 50,0000%00:00 (00:00)
71 Automation - The Car Company Tycoon Game Mar 12, 2015 $29.9950% (80%)50,000 .. 100,00013.7%03:02 (03:37)
72 Sweezy Gunner May 6, 2014 $3.9950% (80%)20,000 .. 50,0000%00:00 (00:00)
73 Until I Have You Apr 4, 2016 $13.9950% (80%)0 .. 20,0000%00:00 (00:00)
74 Masky Dec 16, 2016 $0.9950% (80%)0 .. 20,0002.17%02:20 (00:46)
75 GamersGoMakers Aug 8, 2014 $9.9948% (79%)0 .. 20,0000%00:00 (00:00)
76 Dungeon Painter Studio Feb 26, 2017 $14.9948% (79%)20,000 .. 50,00011.54%01:10 (00:34)
77 Farm Frenzy 4 Apr 29, 2014 $6.9946% (78%)20,000 .. 50,0000%00:00 (00:00)
78 Pixel Shopkeeper Jul 20, 2017 $7.9946% (78%)0 .. 20,0000%00:00 (00:00)
79 VRC PRO Mar 24, 2015 $44.9946% (78%)0 .. 20,0000%00:00 (00:00)
80 Puzzler World 2 Oct 24, 2011 $4.9944% (77%)20,000 .. 50,0000%00:00 (00:00)
81 Farm Frenzy: Hurricane Season Jul 3, 2015 $6.99N/A (N/A)0 .. 20,0000%00:00 (00:00)
82 SinaRun Oct 26, 2015 $2.9944% (77%)0 .. 20,0005.88%34:17 (11:25)
83 Omega Agent May 4, 2016 $2.99N/A (N/A)0 .. 20,0000%00:00 (00:00)
84 Jeeboman Apr 5, 2016 $9.99N/A (N/A)20,000 .. 50,0000%00:00 (00:00)
85 Dodge Mar 16, 2015 $1.99N/A (N/A)0 .. 20,0000%00:00 (00:00)
86 Pixel Puzzles 2: Birds Feb 20, 2015 $9.9942% (76%)200,000 .. 500,0000.37%00:26 (00:16)
87 Demon Hearts Aug 7, 2015 $3.99N/A (N/A)0 .. 20,0000%00:00 (00:00)
88 Fingered Aug 18, 2015 $1.8742% (76%)50,000 .. 100,0001.1%00:22 (00:07)
89 Thief Town Dec 4, 2014 $7.9940% (75%)20,000 .. 50,0000%00:00 (00:00)
90 Crazy Plant Shop Aug 4, 2014 $4.9940% (75%)20,000 .. 50,0000%00:00 (00:00)
91 Prehistoric Tales May 25, 2016 $2.99N/A (N/A)0 .. 20,0000%00:00 (00:00)
92 MOAI 2: Path to Another World Jul 16, 2015 $7.99N/A (N/A)0 .. 20,0000%00:00 (00:00)
93 CALENDULA Feb 2, 2016 $6.9938% (74%/67%)0 .. 20,0000%00:00 (00:00)
94 Wars Across The World May 4, 2017 $9.99N/A (N/A)0 .. 20,0000%00:00 (00:00)
95 Metal Drift Oct 22, 2009 $9.9936% (73%)20,000 .. 50,0000%00:00 (00:00)
96 Luxor: 5th Passage Jan 25, 2011 $9.9936% (73%)50,000 .. 100,0000%00:00 (00:00)
97 Idle Evolution Apr 3, 2017 $4.9936% (73%)0 .. 20,0000%00:00 (00:00)
98 Game Type Sep 23, 2015 $2.99N/A (N/A)0 .. 20,0002.94%04:32 (01:30)
99 Laserlife Sep 22, 2015 $14.99N/A (N/A)0 .. 20,0003.23%00:11 (00:03)
100 Citadel Aug 17, 2016 N/AN/A (N/A)0 .. 20,0000%00:00 (00:00)
101 Brother Wings Jan 10, 2017 $0.9931% (70%)50,000 .. 100,0000%00:00 (00:00)
102 Flame Over May 28, 2015 $11.9931% (70%)20,000 .. 50,0000%00:00 (00:00)
103 Point Perfect Jul 17, 2014 $4.9931% (70%)20,000 .. 50,0000.99%03:15 (01:05)
104 Super Lemonade Factory Jul 9, 2014 $4.99N/A (N/A)20,000 .. 50,0000%00:00 (00:00)
105 Cibele Nov 2, 2015 $8.9930% (69%/71%)50,000 .. 100,0000%00:00 (00:00)
106 Viking Brothers Apr 23, 2014 $9.99N/A (N/A)0 .. 20,0000%00:00 (00:00)
107 Over The Void Nov 11, 2014 $4.9930% (69%)20,000 .. 50,0002.13%02:26 (00:48)
108 Pester Aug 21, 2015 $0.9928% (68%)100,000 .. 200,0000%00:00 (00:00)
109 Quadrant May 26, 2015 $4.9928% (68%)0 .. 20,0000%00:00 (00:00)
110 1931: Scheherazade at the Library of Pergamum Mar 26, 2015 $14.9926% (67%)0 .. 20,0000%00:00 (00:00)
111 Party Saboteurs: After Party Oct 20, 2016 $9.99N/A (N/A)0 .. 20,0000%00:00 (00:00)
112 Lift It Jan 20, 2017 $4.99N/A (N/A)50,000 .. 100,0000.87%08:21 (05:34)
113 Running Sausage Mar 19, 2017 $0.9924% (65%)100,000 .. 200,0000.39%02:06 (01:23)
114 Painters Guild Sep 1, 2015 $9.9924% (65%)20,000 .. 50,0000%00:00 (00:00)
115 Wildlife Park 2 - Horses Jul 17, 2014 $2.79N/A (N/A)0 .. 20,0000%00:00 (00:00)
116 Highborn Feb 19, 2013 $1.9923% (64%)0 .. 20,0000%00:00 (00:00)
117 Metrocide Dec 15, 2014 $12.99N/A (N/A/68%)20,000 .. 50,0000%00:00 (00:00)
118 Herding Dog Dec 25, 2015 $2.99N/A (N/A)0 .. 20,0000%00:00 (00:00)
119 Gem Wars: Attack of the Jiblets Dec 14, 2015 Free21% (63%)20,000 .. 50,0000%00:00 (00:00)
120 GunWorld Feb 11, 2015 $1.99N/A (N/A)0 .. 20,0000%00:00 (00:00)
121 Marble Duel Nov 12, 2015 $4.9920% (62%)50,000 .. 100,0000%00:00 (00:00)
122 Winexy Jan 13, 2017 $0.9920% (62%)20,000 .. 50,0000.98%01:01 (00:20)
123 The Blue Flamingo Nov 18, 2014 $4.9919% (61%/55%)100,000 .. 200,0000.61%01:35 (01:03)
124 Power of Love Jul 21, 2015 $4.9918% (60%)20,000 .. 50,0000.56%02:51 (00:57)
125 Meadowland Oct 22, 2014 $3.99N/A (N/A)0 .. 20,0000%00:00 (00:00)
126 Boss Monster Apr 28, 2016 $4.9915% (57%)20,000 .. 50,0000%00:00 (00:00)
127 Way of Gold and Steel Aug 17, 2015 $8.9914% (56%)20,000 .. 50,0000%00:00 (00:00)
128 Bloop Reloaded Feb 6, 2015 $9.99N/A (N/A)100,000 .. 200,0000.57%00:29 (00:28)
129 Drizzlepath Mar 12, 2015 $2.9913% (54%)0 .. 20,0000%00:00 (00:00)
130 Wildlife Park 3 May 12, 2014 $9.9913% (54%)50,000 .. 100,0000%00:00 (00:00)
131 Quantum Rush Champions Dec 4, 2014 $9.9911% (52%)20,000 .. 50,0000%00:00 (00:00)
132 Pressured Jul 18, 2014 $2.9911% (51%)200,000 .. 500,0000%00:00 (00:00)
133 Machine Hunt May 15, 2017 $2.9911% (51%)50,000 .. 100,0002.26%01:27 (01:27)
134 The guard of dungeon Mar 7, 2017 $2.9911% (51%)50,000 .. 100,0000%00:00 (00:00)
135 Jamsouls Aug 21, 2014 $3.99N/A (N/A)0 .. 20,0000%00:00 (00:00)
136 Autumn Sep 23, 2014 $2.99N/A (N/A)50,000 .. 100,0000.59%00:30 (00:10)
137 Pro Gamer Manager Apr 28, 2016 $9.999% (49%)20,000 .. 50,0000%00:00 (00:00)
138 Rigonauts Aug 7, 2012 $9.999% (48%/60%)0 .. 20,0000%00:00 (00:00)
139 Astro Emporia Feb 2, 2015 $0.99N/A (N/A)20,000 .. 50,0000%00:00 (00:00)
140 The Dolls: Reborn May 25, 2016 $4.998% (47%)50,000 .. 100,0000%00:00 (00:00)
141 Red Goblin: Cursed Forest May 15, 2015 $4.99N/A (N/A)20,000 .. 50,0000%00:00 (00:00)
142 Castle Jan 7, 2015 $4.997% (44%)50,000 .. 100,0000%00:00 (00:00)
143 Melting Hearts: Our Love Will Grow 2 Apr 29, 2016 N/AN/A (N/A)20,000 .. 50,0000%00:00 (00:00)
144 Days of War Jan 26, 2017 $24.996% (42%)20,000 .. 50,0000%00:00 (00:00)
145 Arcadia Dec 2, 2010 $4.996% (42%)0 .. 20,0000%00:00 (00:00)
146 Mech Marines: Steel March Jan 9, 2015 $7.99N/A (N/A)0 .. 20,0000%00:00 (00:00)
147 Hippocampal: The White Sofa May 27, 2014 $4.994% (36%)0 .. 20,0000%00:00 (00:00)
148 Streets of Chaos Jan 28, 2015 $0.99N/A (N/A)100,000 .. 200,0000%00:00 (00:00)
149 Burst Mar 14, 2016 $1.99N/A (N/A)100,000 .. 200,0000.2%01:24 (00:28)
150 The Legions of Rome Sep 16, 2016 $2.99N/A (N/A)0 .. 20,0000%00:00 (00:00)
151 Age of Castles: Warlords May 15, 2015 $1.99N/A (N/A)0 .. 20,0000%00:00 (00:00)
152 Robot vs Birds Zombies Jul 23, 2015 $0.993% (31%)0 .. 20,0000%00:00 (00:00)
153 Botology Jun 24, 2015 $0.992% (29%)50,000 .. 100,0000.27%04:27 (01:29)
154 National Zombie Park Dec 15, 2014 $7.991% (18%)100,000 .. 200,0000%00:00 (00:00)

Tags over time:

Access restricted.

This feature is only available to users with special access rights. Sorry.

If you want to proceed, you need to register or log in first and then back Steam Spy on Patreon. Look for Indie or Pro pledge.

Don't forget to use the same email as on Steam Spy!

Owners of this game also own:

Access restricted.

This feature is only available to users with special access rights. Sorry.

If you want to proceed, you need to register or log in first and then back Steam Spy on Patreon. Look for Indie or Pro pledge.

Don't forget to use the same email as on Steam Spy!

Playtime distribution:

Access restricted.

This feature is only available to users with special access rights. Sorry.

If you want to proceed, you need to register or log in first and then back Steam Spy on Patreon. Look for Indie or Pro pledge.

Don't forget to use the same email as on Steam Spy!

Playtime (2 weeks):

Access restricted.

This feature is only available to users with special access rights. Sorry.

If you want to proceed, you need to register or log in first and then back Steam Spy on Patreon. Look for Indie or Pro pledge.

Don't forget to use the same email as on Steam Spy!

User reviews:

Login required.

Please register or log in to see this information.